sensor_id;sensor_type;location;lat;lon;timestamp;P1;durP1;ratioP1;P2;durP2;ratioP2
24857;SDS011;12935;50.782;6.074;2022-10-23T00:00:57;85.67;;;72.27;;
24857;SDS011;12935;50.782;6.074;2022-10-23T00:03:23;90.80;;;73.47;;
24857;SDS011;12935;50.782;6.074;2022-10-23T00:05:48;108.10;;;71.83;;
24857;SDS011;12935;50.782;6.074;2022-10-23T00:08:13;98.23;;;75.60;;
24857;SDS011;12935;50.782;6.074;2022-10-23T00:10:39;100.83;;;77.27;;
24857;SDS011;12935;50.782;6.074;2022-10-23T00:13:06;80.63;;;70.27;;
24857;SDS011;12935;50.782;6.074;2022-10-23T00:15:31;79.00;;;70.73;;
24857;SDS011;12935;50.782;6.074;2022-10-23T00:17:59;90.87;;;74.87;;
24857;SDS011;12935;50.782;6.074;2022-10-23T00:20:24;129.27;;;81.57;;
24857;SDS011;12935;50.782;6.074;2022-10-23T00:22:49;97.53;;;73.80;;
24857;SDS011;12935;50.782;6.074;2022-10-23T00:25:15;101.97;;;75.67;;
24857;SDS011;12935;50.782;6.074;2022-10-23T00:27:40;92.97;;;73.87;;
24857;SDS011;12935;50.782;6.074;2022-10-23T00:30:05;77.77;;;69.13;;
24857;SDS011;12935;50.782;6.074;2022-10-23T00:32:31;91.37;;;73.80;;
24857;SDS011;12935;50.782;6.074;2022-10-23T00:34:56;88.13;;;72.20;;
24857;SDS011;12935;50.782;6.074;2022-10-23T00:37:21;113.27;;;78.83;;
24857;SDS011;12935;50.782;6.074;2022-10-23T00:39:47;100.23;;;75.87;;
24857;SDS011;12935;50.782;6.074;2022-10-23T00:42:16;131.20;;;85.43;;
24857;SDS011;12935;50.782;6.074;2022-10-23T00:47:08;81.57;;;72.80;;
24857;SDS011;12935;50.782;6.074;2022-10-23T00:49:34;87.60;;;72.97;;
24857;SDS011;12935;50.782;6.074;2022-10-23T00:52:01;93.00;;;74.67;;
24857;SDS011;12935;50.782;6.074;2022-10-23T00:54:30;99.07;;;75.90;;
24857;SDS011;12935;50.782;6.074;2022-10-23T00:56:58;90.10;;;74.33;;
24857;SDS011;12935;50.782;6.074;2022-10-23T00:59:26;95.33;;;73.50;;
24857;SDS011;12935;50.782;6.074;2022-10-23T01:01:53;90.63;;;74.10;;
24857;SDS011;12935;50.782;6.074;2022-10-23T01:04:18;77.97;;;70.20;;
24857;SDS011;12935;50.782;6.074;2022-10-23T01:12:15;90.50;;;73.70;;
24857;SDS011;12935;50.782;6.074;2022-10-23T01:17:45;84.80;;;72.53;;
24857;SDS011;12935;50.782;6.074;2022-10-23T01:23:10;79.77;;;70.63;;
24857;SDS011;12935;50.782;6.074;2022-10-23T01:28:33;90.87;;;72.10;;
24857;SDS011;12935;50.782;6.074;2022-10-23T01:31:07;91.27;;;73.27;;
24857;SDS011;12935;50.782;6.074;2022-10-23T01:33:40;87.90;;;73.43;;
24857;SDS011;12935;50.782;6.074;2022-10-23T01:36:11;85.90;;;73.93;;
24857;SDS011;12935;50.782;6.074;2022-10-23T01:38:43;85.40;;;71.30;;
24857;SDS011;12935;50.782;6.074;2022-10-23T01:41:19;107.13;;;75.87;;
24857;SDS011;12935;50.782;6.074;2022-10-23T01:43:55;87.40;;;71.83;;
24857;SDS011;12935;50.782;6.074;2022-10-23T01:46:26;110.97;;;78.07;;
24857;SDS011;12935;50.782;6.074;2022-10-23T01:48:52;86.97;;;71.07;;
24857;SDS011;12935;50.782;6.074;2022-10-23T01:51:19;89.47;;;72.37;;
24857;SDS011;12935;50.782;6.074;2022-10-23T01:53:48;80.33;;;71.37;;
24857;SDS011;12935;50.782;6.074;2022-10-23T01:56:21;76.03;;;67.93;;
24857;SDS011;12935;50.782;6.074;2022-10-23T01:58:51;131.63;;;83.00;;
24857;SDS011;12935;50.782;6.074;2022-10-23T02:01:20;88.43;;;71.50;;
24857;SDS011;12935;50.782;6.074;2022-10-23T02:03:48;95.50;;;74.83;;
24857;SDS011;12935;50.782;6.074;2022-10-23T02:06:14;90.47;;;72.47;;
24857;SDS011;12935;50.782;6.074;2022-10-23T02:08:40;80.10;;;71.40;;
24857;SDS011;12935;50.782;6.074;2022-10-23T02:11:07;78.73;;;69.73;;
24857;SDS011;12935;50.782;6.074;2022-10-23T02:13:36;94.90;;;74.07;;
24857;SDS011;12935;50.782;6.074;2022-10-23T02:19:04;97.47;;;75.83;;
24857;SDS011;12935;50.782;6.074;2022-10-23T02:21:40;80.20;;;71.70;;
24857;SDS011;12935;50.782;6.074;2022-10-23T02:25:02;82.87;;;71.17;;
24857;SDS011;12935;50.782;6.074;2022-10-23T02:27:23;89.53;;;73.70;;
24857;SDS011;12935;50.782;6.074;2022-10-23T02:29:56;82.80;;;70.90;;
24857;SDS011;12935;50.782;6.074;2022-10-23T02:32:27;95.83;;;75.13;;
24857;SDS011;12935;50.782;6.074;2022-10-23T02:34:53;85.47;;;71.73;;
24857;SDS011;12935;50.782;6.074;2022-10-23T02:37:19;81.40;;;69.67;;
24857;SDS011;12935;50.782;6.074;2022-10-23T02:39:44;126.00;;;83.00;;
24857;SDS011;12935;50.782;6.074;2022-10-23T02:42:17;96.97;;;72.90;;
24857;SDS011;12935;50.782;6.074;2022-10-23T02:45:05;93.70;;;74.17;;
24857;SDS011;12935;50.782;6.074;2022-10-23T02:47:58;91.30;;;73.90;;
24857;SDS011;12935;50.782;6.074;2022-10-23T03:01:21;106.80;;;76.23;;
24857;SDS011;12935;50.782;6.074;2022-10-23T03:03:53;84.67;;;70.70;;
24857;SDS011;12935;50.782;6.074;2022-10-23T03:06:22;91.53;;;73.00;;
24857;SDS011;12935;50.782;6.074;2022-10-23T03:08:51;96.97;;;75.63;;
24857;SDS011;12935;50.782;6.074;2022-10-23T03:11:19;88.53;;;70.60;;
24857;SDS011;12935;50.782;6.074;2022-10-23T03:13:44;85.90;;;71.50;;
24857;SDS011;12935;50.782;6.074;2022-10-23T03:16:09;105.37;;;74.63;;
24857;SDS011;12935;50.782;6.074;2022-10-23T03:18:35;82.20;;;70.23;;
24857;SDS011;12935;50.782;6.074;2022-10-23T03:21:00;82.07;;;69.07;;
24857;SDS011;12935;50.782;6.074;2022-10-23T03:23:26;86.87;;;71.17;;
24857;SDS011;12935;50.782;6.074;2022-10-23T03:25:51;98.13;;;74.13;;
24857;SDS011;12935;50.782;6.074;2022-10-23T03:28:17;96.83;;;74.83;;
24857;SDS011;12935;50.782;6.074;2022-10-23T03:30:43;85.17;;;71.57;;
24857;SDS011;12935;50.782;6.074;2022-10-23T03:33:08;85.97;;;71.47;;
24857;SDS011;12935;50.782;6.074;2022-10-23T03:35:33;82.87;;;71.87;;
24857;SDS011;12935;50.782;6.074;2022-10-23T03:37:58;95.53;;;73.13;;
24857;SDS011;12935;50.782;6.074;2022-10-23T03:40:24;93.20;;;73.70;;
24857;SDS011;12935;50.782;6.074;2022-10-23T03:42:49;84.10;;;71.03;;
24857;SDS011;12935;50.782;6.074;2022-10-23T03:45:14;104.20;;;77.50;;
24857;SDS011;12935;50.782;6.074;2022-10-23T03:47:40;89.63;;;71.90;;
24857;SDS011;12935;50.782;6.074;2022-10-23T03:50:06;88.77;;;71.17;;
24857;SDS011;12935;50.782;6.074;2022-10-23T03:52:32;84.53;;;71.97;;
24857;SDS011;12935;50.782;6.074;2022-10-23T03:54:58;98.70;;;74.60;;
24857;SDS011;12935;50.782;6.074;2022-10-23T03:57:23;117.87;;;76.53;;
24857;SDS011;12935;50.782;6.074;2022-10-23T03:59:49;84.87;;;69.90;;
24857;SDS011;12935;50.782;6.074;2022-10-23T04:02:14;96.60;;;74.73;;
24857;SDS011;12935;50.782;6.074;2022-10-23T04:04:39;81.77;;;69.33;;
24857;SDS011;12935;50.782;6.074;2022-10-23T04:07:04;96.73;;;78.90;;
24857;SDS011;12935;50.782;6.074;2022-10-23T04:09:30;85.90;;;70.87;;
24857;SDS011;12935;50.782;6.074;2022-10-23T04:11:55;92.23;;;72.93;;
24857;SDS011;12935;50.782;6.074;2022-10-23T04:14:21;97.70;;;74.83;;
24857;SDS011;12935;50.782;6.074;2022-10-23T04:16:46;79.97;;;69.43;;
24857;SDS011;12935;50.782;6.074;2022-10-23T04:19:11;82.30;;;70.07;;
24857;SDS011;12935;50.782;6.074;2022-10-23T04:21:37;85.60;;;71.50;;
24857;SDS011;12935;50.782;6.074;2022-10-23T04:24:02;106.87;;;76.80;;
24857;SDS011;12935;50.782;6.074;2022-10-23T04:26:27;81.90;;;69.40;;
24857;SDS011;12935;50.782;6.074;2022-10-23T04:28:53;95.93;;;73.97;;
24857;SDS011;12935;50.782;6.074;2022-10-23T04:31:18;94.23;;;72.87;;
24857;SDS011;12935;50.782;6.074;2022-10-23T04:33:43;80.03;;;70.13;;
24857;SDS011;12935;50.782;6.074;2022-10-23T04:36:09;97.27;;;73.57;;
24857;SDS011;12935;50.782;6.074;2022-10-23T04:38:34;82.27;;;70.80;;
24857;SDS011;12935;50.782;6.074;2022-10-23T04:40:59;86.30;;;69.93;;
24857;SDS011;12935;50.782;6.074;2022-10-23T04:43:25;75.77;;;67.53;;
24857;SDS011;12935;50.782;6.074;2022-10-23T04:45:50;81.03;;;71.93;;
24857;SDS011;12935;50.782;6.074;2022-10-23T04:48:15;77.40;;;69.00;;
24857;SDS011;12935;50.782;6.074;2022-10-23T04:50:40;80.73;;;68.27;;
24857;SDS011;12935;50.782;6.074;2022-10-23T04:53:07;108.43;;;75.63;;
24857;SDS011;12935;50.782;6.074;2022-10-23T04:55:33;78.03;;;69.53;;
24857;SDS011;12935;50.782;6.074;2022-10-23T04:57:58;97.47;;;75.30;;
24857;SDS011;12935;50.782;6.074;2022-10-23T05:00:23;88.33;;;70.93;;
24857;SDS011;12935;50.782;6.074;2022-10-23T05:02:48;76.10;;;68.50;;
24857;SDS011;12935;50.782;6.074;2022-10-23T05:05:14;121.60;;;80.40;;
24857;SDS011;12935;50.782;6.074;2022-10-23T05:07:39;89.07;;;71.23;;
24857;SDS011;12935;50.782;6.074;2022-10-23T05:10:04;105.70;;;76.63;;
24857;SDS011;12935;50.782;6.074;2022-10-23T05:12:30;86.87;;;73.33;;
24857;SDS011;12935;50.782;6.074;2022-10-23T05:14:56;82.07;;;69.63;;
24857;SDS011;12935;50.782;6.074;2022-10-23T05:17:23;80.90;;;69.70;;
24857;SDS011;12935;50.782;6.074;2022-10-23T05:19:55;76.40;;;68.20;;
24857;SDS011;12935;50.782;6.074;2022-10-23T05:22:24;118.83;;;81.10;;
24857;SDS011;12935;50.782;6.074;2022-10-23T05:24:54;74.93;;;67.50;;
24857;SDS011;12935;50.782;6.074;2022-10-23T05:27:19;94.97;;;74.40;;
24857;SDS011;12935;50.782;6.074;2022-10-23T05:29:44;86.83;;;72.33;;
24857;SDS011;12935;50.782;6.074;2022-10-23T05:32:10;93.87;;;73.63;;
24857;SDS011;12935;50.782;6.074;2022-10-23T05:34:38;116.50;;;80.23;;
24857;SDS011;12935;50.782;6.074;2022-10-23T05:37:05;83.67;;;71.53;;
24857;SDS011;12935;50.782;6.074;2022-10-23T05:39:33;103.87;;;76.77;;
24857;SDS011;12935;50.782;6.074;2022-10-23T05:41:59;85.23;;;71.57;;
24857;SDS011;12935;50.782;6.074;2022-10-23T05:44:24;84.10;;;71.20;;
24857;SDS011;12935;50.782;6.074;2022-10-23T05:46:49;98.17;;;73.10;;
24857;SDS011;12935;50.782;6.074;2022-10-23T05:49:15;88.43;;;72.73;;
24857;SDS011;12935;50.782;6.074;2022-10-23T05:51:40;103.47;;;76.50;;
24857;SDS011;12935;50.782;6.074;2022-10-23T05:54:06;94.57;;;74.23;;
24857;SDS011;12935;50.782;6.074;2022-10-23T05:56:35;94.77;;;74.43;;
24857;SDS011;12935;50.782;6.074;2022-10-23T05:59:02;80.53;;;70.67;;
24857;SDS011;12935;50.782;6.074;2022-10-23T06:01:28;90.87;;;73.80;;
24857;SDS011;12935;50.782;6.074;2022-10-23T06:03:53;95.10;;;76.23;;
24857;SDS011;12935;50.782;6.074;2022-10-23T06:06:19;90.80;;;72.90;;
24857;SDS011;12935;50.782;6.074;2022-10-23T06:08:44;132.67;;;85.20;;
24857;SDS011;12935;50.782;6.074;2022-10-23T06:11:11;93.27;;;75.57;;
24857;SDS011;12935;50.782;6.074;2022-10-23T06:13:37;88.00;;;74.83;;
24857;SDS011;12935;50.782;6.074;2022-10-23T06:16:09;91.40;;;74.43;;
24857;SDS011;12935;50.782;6.074;2022-10-23T06:18:37;109.20;;;79.87;;
24857;SDS011;12935;50.782;6.074;2022-10-23T06:21:02;103.47;;;78.67;;
24857;SDS011;12935;50.782;6.074;2022-10-23T06:23:29;109.77;;;81.00;;
24857;SDS011;12935;50.782;6.074;2022-10-23T06:25:59;106.90;;;80.77;;
24857;SDS011;12935;50.782;6.074;2022-10-23T06:28:25;95.60;;;80.40;;
24857;SDS011;12935;50.782;6.074;2022-10-23T06:30:51;104.73;;;79.70;;
24857;SDS011;12935;50.782;6.074;2022-10-23T06:33:16;105.33;;;80.77;;
24857;SDS011;12935;50.782;6.074;2022-10-23T06:35:41;92.57;;;77.57;;
24857;SDS011;12935;50.782;6.074;2022-10-23T06:38:07;117.60;;;85.00;;
24857;SDS011;12935;50.782;6.074;2022-10-23T06:40:33;96.13;;;78.10;;
24857;SDS011;12935;50.782;6.074;2022-10-23T06:42:59;109.60;;;80.97;;
24857;SDS011;12935;50.782;6.074;2022-10-23T06:45:24;93.00;;;78.37;;
24857;SDS011;12935;50.782;6.074;2022-10-23T06:47:49;94.73;;;77.97;;
24857;SDS011;12935;50.782;6.074;2022-10-23T06:50:15;97.20;;;78.30;;
24857;SDS011;12935;50.782;6.074;2022-10-23T06:52:41;96.73;;;79.77;;
24857;SDS011;12935;50.782;6.074;2022-10-23T06:55:06;106.90;;;82.33;;
24857;SDS011;12935;50.782;6.074;2022-10-23T06:57:32;115.10;;;86.27;;
24857;SDS011;12935;50.782;6.074;2022-10-23T06:59:58;108.90;;;83.27;;
24857;SDS011;12935;50.782;6.074;2022-10-23T07:02:23;133.03;;;91.33;;
24857;SDS011;12935;50.782;6.074;2022-10-23T07:04:48;101.23;;;81.67;;
24857;SDS011;12935;50.782;6.074;2022-10-23T07:07:13;132.63;;;88.97;;
24857;SDS011;12935;50.782;6.074;2022-10-23T07:09:39;102.07;;;80.47;;
24857;SDS011;12935;50.782;6.074;2022-10-23T07:12:04;102.47;;;83.20;;
24857;SDS011;12935;50.782;6.074;2022-10-23T07:14:29;106.83;;;82.93;;
24857;SDS011;12935;50.782;6.074;2022-10-23T07:16:56;109.63;;;84.00;;
24857;SDS011;12935;50.782;6.074;2022-10-23T07:19:22;106.57;;;83.63;;
24857;SDS011;12935;50.782;6.074;2022-10-23T07:21:47;105.57;;;84.30;;
24857;SDS011;12935;50.782;6.074;2022-10-23T07:24:12;122.13;;;87.03;;
24857;SDS011;12935;50.782;6.074;2022-10-23T07:26:37;109.33;;;84.30;;
24857;SDS011;12935;50.782;6.074;2022-10-23T07:29:03;102.77;;;84.03;;
24857;SDS011;12935;50.782;6.074;2022-10-23T07:31:28;102.77;;;83.57;;
24857;SDS011;12935;50.782;6.074;2022-10-23T07:33:54;116.40;;;87.07;;
24857;SDS011;12935;50.782;6.074;2022-10-23T07:36:19;122.67;;;88.30;;
24857;SDS011;12935;50.782;6.074;2022-10-23T07:38:45;101.37;;;82.43;;
24857;SDS011;12935;50.782;6.074;2022-10-23T07:41:10;107.93;;;83.97;;
24857;SDS011;12935;50.782;6.074;2022-10-23T07:43:36;111.47;;;85.23;;
24857;SDS011;12935;50.782;6.074;2022-10-23T07:46:02;112.90;;;85.90;;
24857;SDS011;12935;50.782;6.074;2022-10-23T07:48:28;94.00;;;77.73;;
24857;SDS011;12935;50.782;6.074;2022-10-23T07:50:56;99.80;;;82.83;;
24857;SDS011;12935;50.782;6.074;2022-10-23T07:53:24;158.43;;;90.13;;
24857;SDS011;12935;50.782;6.074;2022-10-23T07:55:53;106.27;;;84.67;;
24857;SDS011;12935;50.782;6.074;2022-10-23T07:58:20;112.13;;;83.33;;
24857;SDS011;12935;50.782;6.074;2022-10-23T08:00:47;104.63;;;81.10;;
24857;SDS011;12935;50.782;6.074;2022-10-23T08:03:17;105.27;;;82.17;;
24857;SDS011;12935;50.782;6.074;2022-10-23T08:05:42;108.87;;;83.60;;
24857;SDS011;12935;50.782;6.074;2022-10-23T08:08:08;101.53;;;81.37;;
24857;SDS011;12935;50.782;6.074;2022-10-23T08:10:33;131.50;;;88.20;;
24857;SDS011;12935;50.782;6.074;2022-10-23T08:12:58;112.97;;;84.90;;
24857;SDS011;12935;50.782;6.074;2022-10-23T08:15:24;105.30;;;83.80;;
24857;SDS011;12935;50.782;6.074;2022-10-23T08:17:49;105.10;;;81.97;;
24857;SDS011;12935;50.782;6.074;2022-10-23T08:20:15;98.77;;;79.53;;
24857;SDS011;12935;50.782;6.074;2022-10-23T08:22:40;127.37;;;89.17;;
24857;SDS011;12935;50.782;6.074;2022-10-23T08:25:05;119.00;;;85.73;;
24857;SDS011;12935;50.782;6.074;2022-10-23T08:27:31;105.03;;;82.50;;
24857;SDS011;12935;50.782;6.074;2022-10-23T08:29:56;102.23;;;80.97;;
24857;SDS011;12935;50.782;6.074;2022-10-23T08:32:21;134.27;;;92.30;;
24857;SDS011;12935;50.782;6.074;2022-10-23T08:34:46;121.30;;;86.57;;
24857;SDS011;12935;50.782;6.074;2022-10-23T08:37:12;109.47;;;83.03;;
24857;SDS011;12935;50.782;6.074;2022-10-23T08:39:37;109.20;;;82.13;;
24857;SDS011;12935;50.782;6.074;2022-10-23T08:42:02;104.53;;;80.70;;
24857;SDS011;12935;50.782;6.074;2022-10-23T08:44:30;110.00;;;88.37;;
24857;SDS011;12935;50.782;6.074;2022-10-23T08:47:13;103.53;;;81.03;;
24857;SDS011;12935;50.782;6.074;2022-10-23T08:52:28;105.17;;;82.97;;
24857;SDS011;12935;50.782;6.074;2022-10-23T08:57:46;134.10;;;88.23;;
24857;SDS011;12935;50.782;6.074;2022-10-23T09:00:20;109.33;;;83.90;;
24857;SDS011;12935;50.782;6.074;2022-10-23T09:02:47;115.87;;;84.73;;
24857;SDS011;12935;50.782;6.074;2022-10-23T09:05:16;130.57;;;88.67;;
24857;SDS011;12935;50.782;6.074;2022-10-23T09:19:16;108.03;;;83.43;;
24857;SDS011;12935;50.782;6.074;2022-10-23T09:21:50;118.20;;;86.90;;
24857;SDS011;12935;50.782;6.074;2022-10-23T09:24:17;109.27;;;83.57;;
24857;SDS011;12935;50.782;6.074;2022-10-23T09:26:44;136.20;;;89.63;;
24857;SDS011;12935;50.782;6.074;2022-10-23T09:29:21;97.33;;;79.80;;
24857;SDS011;12935;50.782;6.074;2022-10-23T09:32:04;120.37;;;87.10;;
24857;SDS011;12935;50.782;6.074;2022-10-23T09:34:32;115.53;;;84.90;;
24857;SDS011;12935;50.782;6.074;2022-10-23T09:36:59;115.83;;;86.73;;
24857;SDS011;12935;50.782;6.074;2022-10-23T09:39:28;110.47;;;83.67;;
24857;SDS011;12935;50.782;6.074;2022-10-23T09:41:58;118.93;;;88.67;;
24857;SDS011;12935;50.782;6.074;2022-10-23T09:44:30;109.83;;;89.20;;
24857;SDS011;12935;50.782;6.074;2022-10-23T09:47:07;109.87;;;85.23;;
24857;SDS011;12935;50.782;6.074;2022-10-23T09:49:38;129.30;;;90.77;;
24857;SDS011;12935;50.782;6.074;2022-10-23T09:54:48;85.27;;;76.07;;
24857;SDS011;12935;50.782;6.074;2022-10-23T09:57:27;115.00;;;86.53;;
24857;SDS011;12935;50.782;6.074;2022-10-23T10:00:18;158.73;;;97.03;;
24857;SDS011;12935;50.782;6.074;2022-10-23T10:03:00;114.53;;;89.10;;
24857;SDS011;12935;50.782;6.074;2022-10-23T10:05:29;120.43;;;87.87;;
24857;SDS011;12935;50.782;6.074;2022-10-23T10:10:52;115.27;;;89.23;;
24857;SDS011;12935;50.782;6.074;2022-10-23T10:13:47;121.13;;;89.00;;
24857;SDS011;12935;50.782;6.074;2022-10-23T10:16:14;116.90;;;87.60;;
24857;SDS011;12935;50.782;6.074;2022-10-23T10:18:56;143.83;;;97.73;;
24857;SDS011;12935;50.782;6.074;2022-10-23T10:21:42;127.67;;;91.30;;
24857;SDS011;12935;50.782;6.074;2022-10-23T10:32:46;146.90;;;99.83;;
24857;SDS011;12935;50.782;6.074;2022-10-23T10:46:21;126.70;;;91.73;;
24857;SDS011;12935;50.782;6.074;2022-10-23T10:58:04;125.50;;;93.10;;
24857;SDS011;12935;50.782;6.074;2022-10-23T11:00:34;108.50;;;88.23;;
24857;SDS011;12935;50.782;6.074;2022-10-23T11:03:02;125.40;;;94.27;;
24857;SDS011;12935;50.782;6.074;2022-10-23T11:05:42;113.70;;;89.03;;
24857;SDS011;12935;50.782;6.074;2022-10-23T11:10:56;142.63;;;98.37;;
24857;SDS011;12935;50.782;6.074;2022-10-23T11:13:34;118.37;;;90.00;;
24857;SDS011;12935;50.782;6.074;2022-10-23T11:16:48;121.13;;;90.77;;
24857;SDS011;12935;50.782;6.074;2022-10-23T11:21:53;131.10;;;91.20;;
24857;SDS011;12935;50.782;6.074;2022-10-23T11:35:09;116.83;;;88.73;;
24857;SDS011;12935;50.782;6.074;2022-10-23T11:37:43;109.47;;;86.13;;
24857;SDS011;12935;50.782;6.074;2022-10-23T11:45:02;110.43;;;83.27;;
24857;SDS011;12935;50.782;6.074;2022-10-23T11:47:35;109.40;;;85.17;;
24857;SDS011;12935;50.782;6.074;2022-10-23T11:50:13;100.80;;;82.10;;
24857;SDS011;12935;50.782;6.074;2022-10-23T11:52:51;105.87;;;84.17;;
24857;SDS011;12935;50.782;6.074;2022-10-23T11:55:23;109.50;;;85.60;;
24857;SDS011;12935;50.782;6.074;2022-10-23T12:00:32;97.37;;;80.17;;
24857;SDS011;12935;50.782;6.074;2022-10-23T12:02:59;125.17;;;88.60;;
24857;SDS011;12935;50.782;6.074;2022-10-23T12:05:36;118.67;;;87.90;;
24857;SDS011;12935;50.782;6.074;2022-10-23T12:08:06;108.17;;;87.37;;
24857;SDS011;12935;50.782;6.074;2022-10-23T12:10:46;103.90;;;85.33;;
24857;SDS011;12935;50.782;6.074;2022-10-23T12:15:54;129.20;;;91.73;;
24857;SDS011;12935;50.782;6.074;2022-10-23T12:18:20;112.43;;;89.77;;
24857;SDS011;12935;50.782;6.074;2022-10-23T12:20:47;121.63;;;91.40;;
24857;SDS011;12935;50.782;6.074;2022-10-23T12:26:21;117.77;;;91.97;;
24857;SDS011;12935;50.782;6.074;2022-10-23T12:29:10;117.67;;;92.87;;
24857;SDS011;12935;50.782;6.074;2022-10-23T12:40:19;120.30;;;92.20;;
24857;SDS011;12935;50.782;6.074;2022-10-23T12:42:51;122.90;;;96.57;;
24857;SDS011;12935;50.782;6.074;2022-10-23T12:45:20;121.47;;;96.60;;
24857;SDS011;12935;50.782;6.074;2022-10-23T12:47:48;107.53;;;85.23;;
24857;SDS011;12935;50.782;6.074;2022-10-23T12:52:52;118.73;;;93.13;;
24857;SDS011;12935;50.782;6.074;2022-10-23T12:55:18;129.73;;;98.97;;
24857;SDS011;12935;50.782;6.074;2022-10-23T12:57:44;115.70;;;94.97;;
24857;SDS011;12935;50.782;6.074;2022-10-23T13:00:14;108.30;;;91.63;;
24857;SDS011;12935;50.782;6.074;2022-10-23T13:02:41;120.20;;;95.33;;
24857;SDS011;12935;50.782;6.074;2022-10-23T13:05:07;121.57;;;94.47;;
24857;SDS011;12935;50.782;6.074;2022-10-23T13:07:42;154.30;;;103.13;;
24857;SDS011;12935;50.782;6.074;2022-10-23T13:10:13;141.40;;;100.37;;
24857;SDS011;12935;50.782;6.074;2022-10-23T13:12:39;147.23;;;104.17;;
24857;SDS011;12935;50.782;6.074;2022-10-23T13:15:13;123.80;;;98.20;;
24857;SDS011;12935;50.782;6.074;2022-10-23T13:17:58;125.43;;;98.70;;
24857;SDS011;12935;50.782;6.074;2022-10-23T13:20:27;130.93;;;101.23;;
24857;SDS011;12935;50.782;6.074;2022-10-23T13:22:59;124.20;;;98.00;;
24857;SDS011;12935;50.782;6.074;2022-10-23T13:25:32;131.27;;;102.10;;
24857;SDS011;12935;50.782;6.074;2022-10-23T13:30:58;152.33;;;105.73;;
24857;SDS011;12935;50.782;6.074;2022-10-23T13:33:30;141.30;;;100.70;;
24857;SDS011;12935;50.782;6.074;2022-10-23T13:38:44;157.50;;;106.23;;
24857;SDS011;12935;50.782;6.074;2022-10-23T13:41:38;136.93;;;102.97;;
24857;SDS011;12935;50.782;6.074;2022-10-23T13:44:12;150.57;;;105.77;;
24857;SDS011;12935;50.782;6.074;2022-10-23T13:46:39;135.23;;;101.87;;
24857;SDS011;12935;50.782;6.074;2022-10-23T13:49:04;141.27;;;105.23;;
24857;SDS011;12935;50.782;6.074;2022-10-23T13:51:31;131.63;;;99.73;;
24857;SDS011;12935;50.782;6.074;2022-10-23T13:54:00;133.33;;;96.67;;
24857;SDS011;12935;50.782;6.074;2022-10-23T13:56:26;115.10;;;97.03;;
24857;SDS011;12935;50.782;6.074;2022-10-23T13:58:51;124.40;;;98.60;;
24857;SDS011;12935;50.782;6.074;2022-10-23T14:01:21;134.27;;;95.80;;
24857;SDS011;12935;50.782;6.074;2022-10-23T14:03:51;115.70;;;85.87;;
24857;SDS011;12935;50.782;6.074;2022-10-23T14:06:18;130.87;;;89.37;;
24857;SDS011;12935;50.782;6.074;2022-10-23T14:08:43;122.27;;;87.90;;
24857;SDS011;12935;50.782;6.074;2022-10-23T14:11:09;132.70;;;89.77;;
24857;SDS011;12935;50.782;6.074;2022-10-23T14:13:35;117.63;;;88.50;;
24857;SDS011;12935;50.782;6.074;2022-10-23T14:16:01;135.60;;;92.20;;
24857;SDS011;12935;50.782;6.074;2022-10-23T14:18:26;121.60;;;90.23;;
24857;SDS011;12935;50.782;6.074;2022-10-23T14:20:52;126.57;;;91.40;;
24857;SDS011;12935;50.782;6.074;2022-10-23T14:23:17;146.50;;;96.93;;
24857;SDS011;12935;50.782;6.074;2022-10-23T14:25:42;117.60;;;89.70;;
24857;SDS011;12935;50.782;6.074;2022-10-23T14:28:07;128.50;;;92.73;;
24857;SDS011;12935;50.782;6.074;2022-10-23T14:30:34;125.80;;;92.47;;
24857;SDS011;12935;50.782;6.074;2022-10-23T14:33:00;135.33;;;93.83;;
24857;SDS011;12935;50.782;6.074;2022-10-23T14:35:25;134.00;;;93.97;;
24857;SDS011;12935;50.782;6.074;2022-10-23T14:37:51;129.87;;;94.40;;
24857;SDS011;12935;50.782;6.074;2022-10-23T14:40:16;132.73;;;96.57;;
24857;SDS011;12935;50.782;6.074;2022-10-23T14:42:41;125.10;;;92.87;;
24857;SDS011;12935;50.782;6.074;2022-10-23T14:45:07;135.47;;;96.73;;
24857;SDS011;12935;50.782;6.074;2022-10-23T14:47:32;110.77;;;90.43;;
24857;SDS011;12935;50.782;6.074;2022-10-23T14:49:58;136.47;;;97.50;;
24857;SDS011;12935;50.782;6.074;2022-10-23T14:52:23;156.83;;;101.87;;
24857;SDS011;12935;50.782;6.074;2022-10-23T14:54:52;155.30;;;104.70;;
24857;SDS011;12935;50.782;6.074;2022-10-23T14:57:18;133.60;;;96.40;;
24857;SDS011;12935;50.782;6.074;2022-10-23T14:59:45;125.60;;;94.27;;
24857;SDS011;12935;50.782;6.074;2022-10-23T15:02:11;147.67;;;102.13;;
24857;SDS011;12935;50.782;6.074;2022-10-23T15:04:37;129.10;;;97.20;;
24857;SDS011;12935;50.782;6.074;2022-10-23T15:07:03;126.60;;;96.00;;
24857;SDS011;12935;50.782;6.074;2022-10-23T15:09:28;152.77;;;102.20;;
24857;SDS011;12935;50.782;6.074;2022-10-23T15:11:56;156.27;;;103.47;;
24857;SDS011;12935;50.782;6.074;2022-10-23T15:14:21;131.67;;;97.27;;
24857;SDS011;12935;50.782;6.074;2022-10-23T15:16:46;121.90;;;94.87;;
24857;SDS011;12935;50.782;6.074;2022-10-23T15:19:12;128.50;;;96.00;;
24857;SDS011;12935;50.782;6.074;2022-10-23T15:21:39;119.10;;;91.97;;
24857;SDS011;12935;50.782;6.074;2022-10-23T15:24:04;147.50;;;97.57;;
24857;SDS011;12935;50.782;6.074;2022-10-23T15:26:30;133.80;;;97.57;;
24857;SDS011;12935;50.782;6.074;2022-10-23T15:28:56;125.17;;;94.47;;
24857;SDS011;12935;50.782;6.074;2022-10-23T15:34:08;125.77;;;86.00;;
24857;SDS011;12935;50.782;6.074;2022-10-23T15:36:35;127.37;;;88.70;;
24857;SDS011;12935;50.782;6.074;2022-10-23T15:39:01;118.13;;;85.07;;
24857;SDS011;12935;50.782;6.074;2022-10-23T15:41:30;154.37;;;90.90;;
24857;SDS011;12935;50.782;6.074;2022-10-23T15:43:57;113.93;;;83.27;;
24857;SDS011;12935;50.782;6.074;2022-10-23T15:46:23;120.20;;;85.50;;
24857;SDS011;12935;50.782;6.074;2022-10-23T15:48:49;110.37;;;83.60;;
24857;SDS011;12935;50.782;6.074;2022-10-23T15:51:14;107.80;;;82.57;;
24857;SDS011;12935;50.782;6.074;2022-10-23T15:53:40;103.20;;;79.07;;
24857;SDS011;12935;50.782;6.074;2022-10-23T15:56:05;115.60;;;83.70;;
24857;SDS011;12935;50.782;6.074;2022-10-23T15:58:30;108.07;;;81.17;;
24857;SDS011;12935;50.782;6.074;2022-10-23T16:00:56;126.13;;;87.83;;
24857;SDS011;12935;50.782;6.074;2022-10-23T16:03:21;116.53;;;85.27;;
24857;SDS011;12935;50.782;6.074;2022-10-23T16:05:47;104.07;;;82.63;;
24857;SDS011;12935;50.782;6.074;2022-10-23T16:08:12;106.20;;;82.70;;
24857;SDS011;12935;50.782;6.074;2022-10-23T16:10:38;144.57;;;90.90;;
24857;SDS011;12935;50.782;6.074;2022-10-23T16:13:05;147.37;;;92.97;;
24857;SDS011;12935;50.782;6.074;2022-10-23T16:15:30;116.37;;;87.60;;
24857;SDS011;12935;50.782;6.074;2022-10-23T16:17:55;126.43;;;89.83;;
24857;SDS011;12935;50.782;6.074;2022-10-23T16:20:20;106.53;;;85.57;;
24857;SDS011;12935;50.782;6.074;2022-10-23T16:22:46;117.77;;;87.63;;
24857;SDS011;12935;50.782;6.074;2022-10-23T16:25:11;120.70;;;91.80;;
24857;SDS011;12935;50.782;6.074;2022-10-23T16:27:37;130.00;;;90.67;;
24857;SDS011;12935;50.782;6.074;2022-10-23T16:30:02;106.83;;;86.90;;